KONA/ONA METAR and TAF weather

Enter ICAO airport designator
Station Type Date Time Source
KONA METAR 2020/04/04 11:16 UTC NOAA

KONA 041116Z AUTO 34010G15KT 10SM OVC018 M02/M05 A3025 RMK AO2


Station Type Date Time Source
KONA Decoded METAR 2020/04/04 11:16 UTC NOAA

Winona, Winona Municipal Airport-Max Conrad Field, MN, United States (KONA) 44-05N 091-42W
Apr 04, 2020 - 07:16 AM EDT / 2020.04.04 1116 UTC
Wind: from the NNW (340 degrees) at 12 MPH (10 KT) gusting to 17 MPH (15 KT):0
Visibility: 10 mile(s):0
Sky conditions: overcast
Temperature: 28 F (-2 C)
Windchill: 17 F (-8 C):1
Dew Point: 23 F (-5 C)
Relative Humidity: 79%
Pressure (altimeter): 30.25 in. Hg (1024 hPa)
ob: KONA 041116Z AUTO 34010G15KT 10SM OVC018 M02/M05 A3025 RMK AO2
cycle: 11

Station Type Date Time Source
KONA TAF UTC NOAA

Error!

Example: see airport list